Port Lions, AK (99550)

1:30 PM AKST on February 05, 2016 (GMT -0900)
Kodiak | | Change Station
CLOSE
Current Station
Airport
Location: Kodiak,
Elevation: 112 ft
Nearby Weather Stations

Elev 112 ft 57.75 °N, 152.49 °W | Updated 37 minutes ago

Partly Cloudy
Partly Cloudy
37 °F
Feels Like 30 °F
N
10
Wind Variable Wind from SSE

Today
High -- | Low -- °F
--% Chance of Precip.
Yesterday
High -- | Low -- °F
Precip. -- in
Pressure 29.19 in
Visibility 10.0 miles
Clouds Few 4000 ft
Few 5500 ft
Windchill 30 °F
Dew Point 26 °F
Humidity 65%
Rainfall 0.00 in
Snow Depth Not available.
9:06 AM 5:46 PM
Waning Crescent, 9% visible
METAR PADQ 052153Z 15009KT 10SM FEW040 FEW055 03/M03 A2918 RMK AO2 SLP883 T00281033
Pressure 29.19 in
Visibility 10.0 miles
Clouds Few 4000 ft
Few 5500 ft
Windchill 30 °F
Dew Point 26 °F
Humidity 65%
Rainfall 0.00 in
Snow Depth Not available.
9:06 AM 5:46 PM
Waning Crescent, 9% visible
METAR PADQ 052153Z 15009KT 10SM FEW040 FEW055 03/M03 A2918 RMK AO2 SLP883 T00281033

10-Day Weather Forecast

Almanac

Astronomy

Feb. 05, 2016 Rise Set
Actual Time
Civil Twilight
Nautical Twilight
Astronomical Twilight
Moon
Length of Visible Light
Length of Day
Tomorrow will be .
, % of the Moon is Illuminated

Today's Extremes

State Highs State Lows

Community

WunderPhotos

Upload Photos

1,890,878 photos uploaded!

WunderBlog® & News

Nearby

Air Quality

  Air Quality AQ Index Pollutant
Not available.

Snow Depth

Station Depth Elevation

Earthquake Activity

City Distance Mag. Time & Date
Minimum magnitude displayed is 2.5.

Coastal Water Temperatures

Place Temperature

Stations

Nearby Weather Stations

Station Location Temp. Windchill Dew Point Humidity Wind Precip. Elev Updated Type
                   

Watches & Warnings

There are currently no watches in effect.